sensor_id;sensor_type;location;lat;lon;timestamp;pressure;altitude;pressure_sealevel;temperature;humidity
76132;BME280;64877;50.994;13.650;2024-03-23T00:53:40;98816.59;;;11.63;84.49
76132;BME280;64877;50.994;13.650;2024-03-23T00:56:06;98820.63;;;11.59;85.46
76132;BME280;64877;50.994;13.650;2024-03-23T00:58:31;98820.91;;;11.56;86.42
76132;BME280;64877;50.994;13.650;2024-03-23T01:00:56;98828.75;;;11.59;89.05
76132;BME280;64877;50.994;13.650;2024-03-23T01:03:22;98824.72;;;11.63;89.90
76132;BME280;64877;50.994;13.650;2024-03-23T01:05:47;98818.88;;;11.68;89.36
76132;BME280;64877;50.994;13.650;2024-03-23T01:08:14;98815.63;;;11.64;89.24
76132;BME280;64877;50.994;13.650;2024-03-23T01:10:39;98812.94;;;11.64;87.98
76132;BME280;64877;50.994;13.650;2024-03-23T01:13:05;98801.53;;;11.61;88.05
76132;BME280;64877;50.994;13.650;2024-03-23T01:15:30;98801.28;;;11.54;88.12
76132;BME280;64877;50.994;13.650;2024-03-23T01:17:55;98789.34;;;11.47;88.63
76132;BME280;64877;50.994;13.650;2024-03-23T01:20:21;98799.31;;;11.37;89.48
76132;BME280;64877;50.994;13.650;2024-03-23T01:22:46;98788.41;;;11.29;89.23
76132;BME280;64877;50.994;13.650;2024-03-23T01:25:12;98794.34;;;11.23;88.82
76132;BME280;64877;50.994;13.650;2024-03-23T01:27:37;98791.97;;;11.20;89.41
76132;BME280;64877;50.994;13.650;2024-03-23T01:30:03;98798.06;;;11.22;89.58
76132;BME280;64877;50.994;13.650;2024-03-23T01:32:28;98798.75;;;11.24;89.55
76132;BME280;64877;50.994;13.650;2024-03-23T01:34:54;98786.97;;;11.25;89.51
76132;BME280;64877;50.994;13.650;2024-03-23T01:37:19;98794.25;;;11.24;89.62
76132;BME280;64877;50.994;13.650;2024-03-23T01:39:45;98785.69;;;11.29;90.74
76132;BME280;64877;50.994;13.650;2024-03-23T01:42:11;98777.84;;;11.35;91.78
76132;BME280;64877;50.994;13.650;2024-03-23T01:44:36;98779.69;;;11.35;93.51
76132;BME280;64877;50.994;13.650;2024-03-23T01:47:03;98766.31;;;11.33;94.26
76132;BME280;64877;50.994;13.650;2024-03-23T01:49:28;98766.03;;;11.36;94.27
76132;BME280;64877;50.994;13.650;2024-03-23T01:51:55;98766.19;;;11.35;93.94
76132;BME280;64877;50.994;13.650;2024-03-23T01:54:20;98762.88;;;11.41;95.37
76132;BME280;64877;50.994;13.650;2024-03-23T01:56:47;98757.47;;;11.41;95.18
76132;BME280;64877;50.994;13.650;2024-03-23T01:59:12;98753.19;;;11.38;93.36
76132;BME280;64877;50.994;13.650;2024-03-23T02:01:38;98759.19;;;11.42;92.95
76132;BME280;64877;50.994;13.650;2024-03-23T02:04:04;98752.06;;;11.41;93.57
76132;BME280;64877;50.994;13.650;2024-03-23T02:06:29;98750.06;;;11.43;93.35
76132;BME280;64877;50.994;13.650;2024-03-23T02:08:55;98737.28;;;11.45;93.58
76132;BME280;64877;50.994;13.650;2024-03-23T02:11:20;98731.13;;;11.43;94.84
76132;BME280;64877;50.994;13.650;2024-03-23T02:13:46;98734.84;;;11.42;95.35
76132;BME280;64877;50.994;13.650;2024-03-23T02:16:11;98724.22;;;11.31;96.94
76132;BME280;64877;50.994;13.650;2024-03-23T02:18:38;98731.31;;;11.32;96.18
76132;BME280;64877;50.994;13.650;2024-03-23T02:21:04;98725.63;;;11.35;97.16
76132;BME280;64877;50.994;13.650;2024-03-23T02:23:29;98722.53;;;11.30;96.45
76132;BME280;64877;50.994;13.650;2024-03-23T02:25:55;98716.41;;;11.28;97.25
76132;BME280;64877;50.994;13.650;2024-03-23T02:28:20;98705.47;;;11.29;97.63
76132;BME280;64877;50.994;13.650;2024-03-23T02:30:48;98700.91;;;11.30;96.84
76132;BME280;64877;50.994;13.650;2024-03-23T02:33:13;98698.03;;;11.31;96.17
76132;BME280;64877;50.994;13.650;2024-03-23T02:35:39;98700.06;;;11.29;97.19
76132;BME280;64877;50.994;13.650;2024-03-23T02:38:04;98697.03;;;11.32;97.10
76132;BME280;64877;50.994;13.650;2024-03-23T02:40:29;98699.19;;;11.29;96.31
76132;BME280;64877;50.994;13.650;2024-03-23T02:42:55;98702.03;;;11.27;96.68
76132;BME280;64877;50.994;13.650;2024-03-23T02:45:21;98693.34;;;11.24;96.31
76132;BME280;64877;50.994;13.650;2024-03-23T02:47:46;98694.38;;;11.23;96.63
76132;BME280;64877;50.994;13.650;2024-03-23T02:50:11;98695.22;;;11.23;96.33
76132;BME280;64877;50.994;13.650;2024-03-23T02:52:37;98693.81;;;11.19;97.40
76132;BME280;64877;50.994;13.650;2024-03-23T02:55:03;98699.06;;;11.21;96.51
76132;BME280;64877;50.994;13.650;2024-03-23T02:57:29;98693.94;;;11.18;97.02
76132;BME280;64877;50.994;13.650;2024-03-23T02:59:54;98685.84;;;11.18;97.90
76132;BME280;64877;50.994;13.650;2024-03-23T03:02:20;98683.56;;;11.23;97.08
76132;BME280;64877;50.994;13.650;2024-03-23T03:04:46;98669.63;;;11.18;97.28
76132;BME280;64877;50.994;13.650;2024-03-23T03:07:13;98670.22;;;11.11;97.62
76132;BME280;64877;50.994;13.650;2024-03-23T03:09:38;98655.31;;;11.07;98.17
76132;BME280;64877;50.994;13.650;2024-03-23T03:12:07;98653.19;;;11.01;98.55
76132;BME280;64877;50.994;13.650;2024-03-23T03:14:34;98654.63;;;10.96;98.95
76132;BME280;64877;50.994;13.650;2024-03-23T03:16:59;98649.66;;;10.91;99.34
76132;BME280;64877;50.994;13.650;2024-03-23T03:19:24;98653.50;;;10.88;100.00
76132;BME280;64877;50.994;13.650;2024-03-23T03:21:50;98643.56;;;10.89;100.00
76132;BME280;64877;50.994;13.650;2024-03-23T03:24:15;98647.13;;;10.90;100.00
76132;BME280;64877;50.994;13.650;2024-03-23T03:26:42;98651.53;;;10.91;100.00
76132;BME280;64877;50.994;13.650;2024-03-23T03:29:07;98640.41;;;10.94;100.00
76132;BME280;64877;50.994;13.650;2024-03-23T03:31:33;98649.50;;;11.02;100.00
76132;BME280;64877;50.994;13.650;2024-03-23T03:33:58;98634.00;;;11.04;99.69
76132;BME280;64877;50.994;13.650;2024-03-23T03:36:23;98638.41;;;11.05;98.64
76132;BME280;64877;50.994;13.650;2024-03-23T03:38:49;98636.38;;;11.07;98.96
76132;BME280;64877;50.994;13.650;2024-03-23T03:41:14;98649.91;;;11.07;99.21
76132;BME280;64877;50.994;13.650;2024-03-23T03:43:40;98644.66;;;11.06;99.24
76132;BME280;64877;50.994;13.650;2024-03-23T03:46:05;98631.28;;;11.04;99.08
76132;BME280;64877;50.994;13.650;2024-03-23T03:48:33;98627.88;;;11.02;98.54
76132;BME280;64877;50.994;13.650;2024-03-23T03:50:59;98615.66;;;10.98;98.66
76132;BME280;64877;50.994;13.650;2024-03-23T03:53:24;98619.97;;;10.91;99.40
76132;BME280;64877;50.994;13.650;2024-03-23T03:55:50;98610.03;;;10.82;100.00
76132;BME280;64877;50.994;13.650;2024-03-23T03:58:15;98604.06;;;10.78;99.81
76132;BME280;64877;50.994;13.650;2024-03-23T04:00:41;98604.91;;;10.79;100.00
76132;BME280;64877;50.994;13.650;2024-03-23T04:03:06;98610.31;;;10.79;99.74
76132;BME280;64877;50.994;13.650;2024-03-23T04:05:31;98600.41;;;10.70;100.00
76132;BME280;64877;50.994;13.650;2024-03-23T04:07:57;98600.69;;;10.67;100.00
76132;BME280;64877;50.994;13.650;2024-03-23T04:10:23;98601.28;;;10.60;100.00
76132;BME280;64877;50.994;13.650;2024-03-23T04:12:48;98579.84;;;10.49;100.00
76132;BME280;64877;50.994;13.650;2024-03-23T04:15:14;98588.50;;;10.43;100.00
76132;BME280;64877;50.994;13.650;2024-03-23T04:17:40;98573.47;;;10.41;100.00
76132;BME280;64877;50.994;13.650;2024-03-23T04:20:08;98592.94;;;10.34;100.00
76132;BME280;64877;50.994;13.650;2024-03-23T04:22:37;98576.59;;;10.36;100.00
76132;BME280;64877;50.994;13.650;2024-03-23T04:25:03;98578.88;;;10.31;100.00
76132;BME280;64877;50.994;13.650;2024-03-23T04:27:34;98564.66;;;10.29;100.00
76132;BME280;64877;50.994;13.650;2024-03-23T04:30:00;98563.25;;;10.15;100.00
76132;BME280;64877;50.994;13.650;2024-03-23T04:32:30;98566.97;;;9.95;100.00
76132;BME280;64877;50.994;13.650;2024-03-23T04:34:55;98560.00;;;9.82;100.00
76132;BME280;64877;50.994;13.650;2024-03-23T04:37:21;98556.28;;;9.83;100.00
76132;BME280;64877;50.994;13.650;2024-03-23T04:39:47;98544.81;;;9.81;100.00
76132;BME280;64877;50.994;13.650;2024-03-23T04:42:14;98539.00;;;9.76;100.00
76132;BME280;64877;50.994;13.650;2024-03-23T04:44:40;98546.06;;;9.68;100.00
76132;BME280;64877;50.994;13.650;2024-03-23T04:47:05;98542.09;;;9.62;100.00
76132;BME280;64877;50.994;13.650;2024-03-23T04:49:32;98533.16;;;9.62;100.00
76132;BME280;64877;50.994;13.650;2024-03-23T04:51:58;98525.66;;;9.55;100.00
76132;BME280;64877;50.994;13.650;2024-03-23T04:54:23;98518.09;;;9.49;100.00
76132;BME280;64877;50.994;13.650;2024-03-23T04:56:49;98503.50;;;9.42;100.00
76132;BME280;64877;50.994;13.650;2024-03-23T04:59:14;98492.88;;;9.31;100.00
76132;BME280;64877;50.994;13.650;2024-03-23T05:01:40;98490.03;;;9.32;100.00
76132;BME280;64877;50.994;13.650;2024-03-23T05:04:08;98476.13;;;9.37;100.00
76132;BME280;64877;50.994;13.650;2024-03-23T05:06:34;98479.81;;;9.36;100.00
76132;BME280;64877;50.994;13.650;2024-03-23T05:09:00;98465.09;;;9.40;100.00
76132;BME280;64877;50.994;13.650;2024-03-23T05:11:28;98472.75;;;9.35;100.00
76132;BME280;64877;50.994;13.650;2024-03-23T05:13:53;98470.75;;;9.37;100.00
76132;BME280;64877;50.994;13.650;2024-03-23T05:16:19;98479.69;;;9.47;100.00
76132;BME280;64877;50.994;13.650;2024-03-23T05:18:44;98461.66;;;9.57;100.00
76132;BME280;64877;50.994;13.650;2024-03-23T05:21:10;98458.38;;;9.64;100.00
76132;BME280;64877;50.994;13.650;2024-03-23T05:23:35;98447.50;;;9.65;100.00
76132;BME280;64877;50.994;13.650;2024-03-23T05:26:00;98449.88;;;9.68;100.00
76132;BME280;64877;50.994;13.650;2024-03-23T05:28:26;98430.16;;;9.68;100.00
76132;BME280;64877;50.994;13.650;2024-03-23T05:30:52;98430.41;;;9.74;100.00
76132;BME280;64877;50.994;13.650;2024-03-23T05:33:21;98437.38;;;9.87;100.00
76132;BME280;64877;50.994;13.650;2024-03-23T05:35:47;98428.44;;;9.86;100.00
76132;BME280;64877;50.994;13.650;2024-03-23T05:38:21;98424.47;;;9.90;100.00
76132;BME280;64877;50.994;13.650;2024-03-23T05:41:01;98438.50;;;9.84;100.00
76132;BME280;64877;50.994;13.650;2024-03-23T05:43:27;98440.34;;;9.83;100.00
76132;BME280;64877;50.994;13.650;2024-03-23T05:45:58;98434.25;;;9.81;100.00
76132;BME280;64877;50.994;13.650;2024-03-23T05:48:24;98432.84;;;9.77;100.00
76132;BME280;64877;50.994;13.650;2024-03-23T05:50:50;98436.81;;;9.83;100.00
76132;BME280;64877;50.994;13.650;2024-03-23T05:53:17;98425.16;;;9.92;100.00
76132;BME280;64877;50.994;13.650;2024-03-23T05:55:43;98408.84;;;9.84;100.00
76132;BME280;64877;50.994;13.650;2024-03-23T05:58:08;98392.81;;;9.82;100.00
76132;BME280;64877;50.994;13.650;2024-03-23T06:00:34;98389.13;;;9.83;100.00
76132;BME280;64877;50.994;13.650;2024-03-23T06:03:00;98381.75;;;9.86;100.00
76132;BME280;64877;50.994;13.650;2024-03-23T06:05:25;98381.88;;;9.84;100.00
76132;BME280;64877;50.994;13.650;2024-03-23T06:07:50;98375.63;;;9.83;100.00
76132;BME280;64877;50.994;13.650;2024-03-23T06:10:16;98368.38;;;9.84;100.00
76132;BME280;64877;50.994;13.650;2024-03-23T06:12:41;98363.44;;;9.79;100.00
76132;BME280;64877;50.994;13.650;2024-03-23T06:15:07;98360.75;;;9.79;100.00
76132;BME280;64877;50.994;13.650;2024-03-23T06:17:39;98355.50;;;9.78;100.00
76132;BME280;64877;50.994;13.650;2024-03-23T06:20:05;98349.81;;;9.81;100.00
76132;BME280;64877;50.994;13.650;2024-03-23T06:22:33;98350.94;;;9.88;100.00
76132;BME280;64877;50.994;13.650;2024-03-23T06:24:59;98348.53;;;9.85;100.00
76132;BME280;64877;50.994;13.650;2024-03-23T06:27:25;98344.13;;;9.84;100.00
76132;BME280;64877;50.994;13.650;2024-03-23T06:29:50;98322.59;;;9.74;100.00
76132;BME280;64877;50.994;13.650;2024-03-23T06:32:16;98313.38;;;9.77;100.00
76132;BME280;64877;50.994;13.650;2024-03-23T06:34:42;98307.69;;;9.80;100.00
76132;BME280;64877;50.994;13.650;2024-03-23T06:37:07;98307.09;;;9.86;100.00
76132;BME280;64877;50.994;13.650;2024-03-23T06:39:35;98295.75;;;9.82;100.00
76132;BME280;64877;50.994;13.650;2024-03-23T06:42:02;98298.28;;;9.84;100.00
76132;BME280;64877;50.994;13.650;2024-03-23T06:44:27;98293.00;;;9.92;100.00
76132;BME280;64877;50.994;13.650;2024-03-23T06:46:53;98295.09;;;9.98;100.00
76132;BME280;64877;50.994;13.650;2024-03-23T06:49:18;98282.41;;;10.08;100.00
76132;BME280;64877;50.994;13.650;2024-03-23T06:51:45;98280.13;;;10.14;100.00
76132;BME280;64877;50.994;13.650;2024-03-23T06:54:10;98283.13;;;10.10;100.00
76132;BME280;64877;50.994;13.650;2024-03-23T06:56:35;98282.53;;;10.17;100.00
76132;BME280;64877;50.994;13.650;2024-03-23T06:59:01;98278.66;;;10.19;100.00
76132;BME280;64877;50.994;13.650;2024-03-23T07:01:26;98267.75;;;10.21;100.00
76132;BME280;64877;50.994;13.650;2024-03-23T07:03:54;98269.88;;;10.27;100.00
76132;BME280;64877;50.994;13.650;2024-03-23T07:06:19;98278.25;;;10.24;100.00
76132;BME280;64877;50.994;13.650;2024-03-23T07:08:44;98279.34;;;10.31;100.00
76132;BME280;64877;50.994;13.650;2024-03-23T07:11:10;98274.34;;;10.36;100.00
76132;BME280;64877;50.994;13.650;2024-03-23T07:13:35;98270.34;;;10.40;100.00
76132;BME280;64877;50.994;13.650;2024-03-23T07:16:01;98268.88;;;10.46;100.00
76132;BME280;64877;50.994;13.650;2024-03-23T07:18:26;98236.88;;;10.51;100.00
76132;BME280;64877;50.994;13.650;2024-03-23T07:20:56;98218.00;;;10.51;100.00
76132;BME280;64877;50.994;13.650;2024-03-23T07:23:22;98208.25;;;10.58;100.00
76132;BME280;64877;50.994;13.650;2024-03-23T07:26:06;98212.75;;;10.67;100.00
76132;BME280;64877;50.994;13.650;2024-03-23T07:28:31;98223.44;;;10.77;100.00
76132;BME280;64877;50.994;13.650;2024-03-23T07:31:02;98212.66;;;10.77;100.00
76132;BME280;64877;50.994;13.650;2024-03-23T07:33:28;98206.63;;;10.83;100.00
76132;BME280;64877;50.994;13.650;2024-03-23T07:35:53;98196.06;;;10.90;100.00
76132;BME280;64877;50.994;13.650;2024-03-23T07:38:19;98194.88;;;10.92;100.00
76132;BME280;64877;50.994;13.650;2024-03-23T07:40:44;98194.56;;;10.95;100.00
76132;BME280;64877;50.994;13.650;2024-03-23T07:43:10;98185.47;;;10.96;100.00
76132;BME280;64877;50.994;13.650;2024-03-23T07:45:35;98182.66;;;11.06;100.00
76132;BME280;64877;50.994;13.650;2024-03-23T07:48:03;98182.81;;;11.04;100.00
76132;BME280;64877;50.994;13.650;2024-03-23T07:50:28;98179.66;;;11.09;100.00
76132;BME280;64877;50.994;13.650;2024-03-23T07:52:54;98162.81;;;11.23;100.00
76132;BME280;64877;50.994;13.650;2024-03-23T07:55:19;98155.31;;;11.35;100.00
76132;BME280;64877;50.994;13.650;2024-03-23T07:57:45;98152.84;;;11.50;100.00
76132;BME280;64877;50.994;13.650;2024-03-23T08:00:10;98143.22;;;11.55;100.00
76132;BME280;64877;50.994;13.650;2024-03-23T08:02:38;98133.25;;;11.56;100.00
76132;BME280;64877;50.994;13.650;2024-03-23T08:05:03;98136.69;;;11.66;100.00
76132;BME280;64877;50.994;13.650;2024-03-23T08:07:29;98136.34;;;11.69;98.77
76132;BME280;64877;50.994;13.650;2024-03-23T08:09:55;98123.66;;;11.61;99.29
76132;BME280;64877;50.994;13.650;2024-03-23T08:12:20;98109.44;;;11.59;100.00
76132;BME280;64877;50.994;13.650;2024-03-23T08:14:45;98111.63;;;11.56;100.00
76132;BME280;64877;50.994;13.650;2024-03-23T08:17:11;98108.09;;;11.63;100.00
76132;BME280;64877;50.994;13.650;2024-03-23T08:19:36;98103.22;;;11.67;100.00
76132;BME280;64877;50.994;13.650;2024-03-23T08:22:02;98097.91;;;12.00;99.75
76132;BME280;64877;50.994;13.650;2024-03-23T08:24:27;98104.19;;;12.65;98.26
76132;BME280;64877;50.994;13.650;2024-03-23T08:26:54;98087.84;;;13.06;93.01
76132;BME280;64877;50.994;13.650;2024-03-23T08:29:20;98081.31;;;13.79;90.36
76132;BME280;64877;50.994;13.650;2024-03-23T08:31:45;98074.94;;;14.41;85.58
76132;BME280;64877;50.994;13.650;2024-03-23T08:34:10;98069.09;;;14.29;83.99
76132;BME280;64877;50.994;13.650;2024-03-23T08:36:36;98076.59;;;14.50;84.23
76132;BME280;64877;50.994;13.650;2024-03-23T08:39:01;98088.72;;;14.62;82.80
76132;BME280;64877;50.994;13.650;2024-03-23T08:41:27;98086.00;;;14.62;83.55
76132;BME280;64877;50.994;13.650;2024-03-23T08:43:52;98077.72;;;14.33;82.93
76132;BME280;64877;50.994;13.650;2024-03-23T08:46:18;98079.41;;;13.88;85.16
76132;BME280;64877;50.994;13.650;2024-03-23T08:48:47;98086.03;;;13.54;88.52
76132;BME280;64877;50.994;13.650;2024-03-23T08:51:15;98081.63;;;13.53;90.23
76132;BME280;64877;50.994;13.650;2024-03-23T08:53:41;98080.94;;;13.51;90.94
76132;BME280;64877;50.994;13.650;2024-03-23T08:56:08;98085.03;;;13.47;90.97
76132;BME280;64877;50.994;13.650;2024-03-23T08:58:34;98084.06;;;13.32;93.45
76132;BME280;64877;50.994;13.650;2024-03-23T09:01:07;98080.72;;;13.22;93.73
76132;BME280;64877;50.994;13.650;2024-03-23T09:03:33;98070.84;;;13.37;92.63
76132;BME280;64877;50.994;13.650;2024-03-23T09:05:59;98080.59;;;13.54;91.16
76132;BME280;64877;50.994;13.650;2024-03-23T09:08:25;98076.44;;;13.66;91.70
76132;BME280;64877;50.994;13.650;2024-03-23T09:10:51;98067.25;;;13.76;89.03
76132;BME280;64877;50.994;13.650;2024-03-23T09:13:17;98065.47;;;14.14;84.89
76132;BME280;64877;50.994;13.650;2024-03-23T09:15:47;98073.69;;;14.29;82.59
76132;BME280;64877;50.994;13.650;2024-03-23T09:18:13;98080.56;;;14.39;79.78
76132;BME280;64877;50.994;13.650;2024-03-23T09:20:38;98078.94;;;14.53;78.32
76132;BME280;64877;50.994;13.650;2024-03-23T09:23:04;98074.06;;;14.48;77.46
76132;BME280;64877;50.994;13.650;2024-03-23T09:25:29;98075.41;;;14.44;75.07
76132;BME280;64877;50.994;13.650;2024-03-23T09:27:54;98085.50;;;14.59;75.89
76132;BME280;64877;50.994;13.650;2024-03-23T09:30:20;98093.78;;;14.42;74.52
76132;BME280;64877;50.994;13.650;2024-03-23T09:32:46;98104.97;;;14.47;73.48
76132;BME280;64877;50.994;13.650;2024-03-23T09:35:11;98111.91;;;14.42;74.39
76132;BME280;64877;50.994;13.650;2024-03-23T09:37:38;98128.03;;;14.20;75.63
76132;BME280;64877;50.994;13.650;2024-03-23T09:40:10;98175.34;;;13.95;77.32
76132;BME280;64877;50.994;13.650;2024-03-23T09:42:36;98188.72;;;13.65;84.21
76132;BME280;64877;50.994;13.650;2024-03-23T09:45:02;98205.75;;;13.43;89.81
76132;BME280;64877;50.994;13.650;2024-03-23T09:47:31;98218.66;;;13.25;90.64
76132;BME280;64877;50.994;13.650;2024-03-23T09:49:57;98201.00;;;13.20;93.91
76132;BME280;64877;50.994;13.650;2024-03-23T09:52:24;98227.63;;;13.33;90.44
76132;BME280;64877;50.994;13.650;2024-03-23T09:54:49;98242.16;;;12.59;91.03
76132;BME280;64877;50.994;13.650;2024-03-23T09:57:15;98265.06;;;12.22;91.88
76132;BME280;64877;50.994;13.650;2024-03-23T09:59:40;98280.69;;;11.94;92.23
76132;BME280;64877;50.994;13.650;2024-03-23T10:02:06;98297.44;;;11.72;90.08
76132;BME280;64877;50.994;13.650;2024-03-23T10:04:39;98303.63;;;11.38;89.20
76132;BME280;64877;50.994;13.650;2024-03-23T10:07:15;98324.66;;;11.08;88.50
76132;BME280;64877;50.994;13.650;2024-03-23T10:09:49;98356.00;;;10.66;88.26
76132;BME280;64877;50.994;13.650;2024-03-23T10:12:17;98376.81;;;10.55;87.91
76132;BME280;64877;50.994;13.650;2024-03-23T10:14:44;98396.41;;;10.30;87.68
76132;BME280;64877;50.994;13.650;2024-03-23T10:19:47;98423.63;;;9.80;88.80
76132;BME280;64877;50.994;13.650;2024-03-23T10:22:17;98430.69;;;9.91;87.97
76132;BME280;64877;50.994;13.650;2024-03-23T10:24:43;98456.44;;;9.46;88.59
76132;BME280;64877;50.994;13.650;2024-03-23T10:27:08;98471.75;;;9.36;86.68
76132;BME280;64877;50.994;13.650;2024-03-23T10:29:34;98479.06;;;8.95;86.54
76132;BME280;64877;50.994;13.650;2024-03-23T10:32:12;98506.88;;;8.75;87.45
76132;BME280;64877;50.994;13.650;2024-03-23T10:34:39;98517.94;;;8.72;89.73
76132;BME280;64877;50.994;13.650;2024-03-23T10:37:06;98536.41;;;8.86;88.77
76132;BME280;64877;50.994;13.650;2024-03-23T10:39:36;98556.22;;;8.75;88.35
76132;BME280;64877;50.994;13.650;2024-03-23T10:42:03;98570.88;;;8.62;89.02
76132;BME280;64877;50.994;13.650;2024-03-23T10:44:30;98572.81;;;8.60;88.41
76132;BME280;64877;50.994;13.650;2024-03-23T10:46:57;98592.59;;;8.49;88.91
76132;BME280;64877;50.994;13.650;2024-03-23T10:49:27;98604.66;;;8.54;89.21
76132;BME280;64877;50.994;13.650;2024-03-23T10:51:56;98620.75;;;8.66;88.97
76132;BME280;64877;50.994;13.650;2024-03-23T10:54:24;98628.81;;;8.66;90.81
76132;BME280;64877;50.994;13.650;2024-03-23T10:56:52;98631.53;;;8.66;89.75
76132;BME280;64877;50.994;13.650;2024-03-23T10:59:19;98645.94;;;8.65;88.77
76132;BME280;64877;50.994;13.650;2024-03-23T11:01:58;98659.69;;;8.62;89.81
76132;BME280;64877;50.994;13.650;2024-03-23T11:04:34;98649.44;;;8.56;89.94
76132;BME280;64877;50.994;13.650;2024-03-23T11:09:48;98675.09;;;8.27;89.88
76132;BME280;64877;50.994;13.650;2024-03-23T11:15:04;98663.16;;;8.52;89.62
76132;BME280;64877;50.994;13.650;2024-03-23T11:17:31;98672.78;;;8.23;88.73
76132;BME280;64877;50.994;13.650;2024-03-23T11:20:03;98670.69;;;8.59;86.89
76132;BME280;64877;50.994;13.650;2024-03-23T11:22:42;98661.69;;;8.90;85.73
76132;BME280;64877;50.994;13.650;2024-03-23T11:25:19;98668.06;;;9.20;86.39
76132;BME280;64877;50.994;13.650;2024-03-23T11:27:51;98663.06;;;9.05;82.69
76132;BME280;64877;50.994;13.650;2024-03-23T11:32:45;98677.31;;;8.96;85.62
76132;BME280;64877;50.994;13.650;2024-03-23T11:35:27;98679.91;;;9.07;84.61
76132;BME280;64877;50.994;13.650;2024-03-23T11:38:12;98696.81;;;8.89;83.76
76132;BME280;64877;50.994;13.650;2024-03-23T11:40:42;98707.25;;;8.82;84.08
76132;BME280;64877;50.994;13.650;2024-03-23T11:43:10;98709.88;;;8.93;84.53
76132;BME280;64877;50.994;13.650;2024-03-23T11:45:39;98716.44;;;8.59;84.37
76132;BME280;64877;50.994;13.650;2024-03-23T11:48:12;98719.06;;;8.70;84.54
76132;BME280;64877;50.994;13.650;2024-03-23T11:50:43;98712.91;;;8.79;84.14
76132;BME280;64877;50.994;13.650;2024-03-23T11:58:21;98711.94;;;9.31;84.54
76132;BME280;64877;50.994;13.650;2024-03-23T12:01:01;98709.16;;;9.12;82.17
76132;BME280;64877;50.994;13.650;2024-03-23T12:03:28;98707.19;;;8.93;83.06
76132;BME280;64877;50.994;13.650;2024-03-23T12:05:55;98698.13;;;8.94;82.90
76132;BME280;64877;50.994;13.650;2024-03-23T12:08:25;98708.66;;;8.76;80.88
76132;BME280;64877;50.994;13.650;2024-03-23T12:11:08;98698.56;;;8.99;81.50
76132;BME280;64877;50.994;13.650;2024-03-23T12:13:35;98704.16;;;9.38;81.07
76132;BME280;64877;50.994;13.650;2024-03-23T12:18:35;98702.22;;;9.19;82.24
76132;BME280;64877;50.994;13.650;2024-03-23T12:21:00;98700.06;;;9.13;79.63
76132;BME280;64877;50.994;13.650;2024-03-23T12:23:26;98705.78;;;9.20;78.12
76132;BME280;64877;50.994;13.650;2024-03-23T12:25:51;98724.13;;;9.26;78.73
76132;BME280;64877;50.994;13.650;2024-03-23T12:28:16;98717.44;;;9.20;80.88
76132;BME280;64877;50.994;13.650;2024-03-23T12:30:42;98715.72;;;9.59;78.14
76132;BME280;64877;50.994;13.650;2024-03-23T12:33:07;98708.97;;;9.65;76.65
76132;BME280;64877;50.994;13.650;2024-03-23T12:35:33;98705.13;;;9.68;75.79
76132;BME280;64877;50.994;13.650;2024-03-23T12:37:59;98689.97;;;9.76;77.02
76132;BME280;64877;50.994;13.650;2024-03-23T12:40:25;98686.00;;;9.71;75.32
76132;BME280;64877;50.994;13.650;2024-03-23T12:42:50;98684.94;;;9.52;77.16
76132;BME280;64877;50.994;13.650;2024-03-23T12:45:17;98696.44;;;9.24;76.40
76132;BME280;64877;50.994;13.650;2024-03-23T12:47:43;98709.59;;;9.17;76.61
76132;BME280;64877;50.994;13.650;2024-03-23T12:50:10;98717.50;;;9.40;76.65
76132;BME280;64877;50.994;13.650;2024-03-23T12:52:37;98725.13;;;9.65;75.81
76132;BME280;64877;50.994;13.650;2024-03-23T12:55:04;98723.56;;;9.63;75.10
76132;BME280;64877;50.994;13.650;2024-03-23T12:57:31;98736.25;;;9.41;75.06
76132;BME280;64877;50.994;13.650;2024-03-23T12:59:57;98752.22;;;9.64;74.59
76132;BME280;64877;50.994;13.650;2024-03-23T13:02:23;98749.25;;;9.67;73.21
76132;BME280;64877;50.994;13.650;2024-03-23T13:04:52;98735.19;;;9.63;73.09
76132;BME280;64877;50.994;13.650;2024-03-23T13:07:19;98721.91;;;9.81;73.01
76132;BME280;64877;50.994;13.650;2024-03-23T13:09:45;98715.09;;;9.77;72.85
76132;BME280;64877;50.994;13.650;2024-03-23T13:12:11;98712.28;;;9.88;72.02
76132;BME280;64877;50.994;13.650;2024-03-23T13:14:38;98721.84;;;9.62;70.56
76132;BME280;64877;50.994;13.650;2024-03-23T13:17:04;98729.56;;;9.15;73.05
76132;BME280;64877;50.994;13.650;2024-03-23T13:19:30;98736.53;;;9.48;73.43
76132;BME280;64877;50.994;13.650;2024-03-23T13:22:00;98743.59;;;9.39;71.54
76132;BME280;64877;50.994;13.650;2024-03-23T13:24:29;98765.34;;;9.47;71.90
76132;BME280;64877;50.994;13.650;2024-03-23T13:26:55;98777.38;;;9.43;70.63
76132;BME280;64877;50.994;13.650;2024-03-23T13:29:22;98791.09;;;9.61;69.76
76132;BME280;64877;50.994;13.650;2024-03-23T13:31:48;98799.28;;;9.50;69.55
76132;BME280;64877;50.994;13.650;2024-03-23T13:34:15;98795.19;;;9.55;68.46
76132;BME280;64877;50.994;13.650;2024-03-23T13:36:47;98806.47;;;9.49;70.27
76132;BME280;64877;50.994;13.650;2024-03-23T13:39:13;98809.09;;;9.40;71.23
76132;BME280;64877;50.994;13.650;2024-03-23T13:41:44;98781.81;;;9.54;70.76
76132;BME280;64877;50.994;13.650;2024-03-23T13:44:11;98768.69;;;9.61;70.47
76132;BME280;64877;50.994;13.650;2024-03-23T13:46:37;98756.38;;;9.77;69.33
76132;BME280;64877;50.994;13.650;2024-03-23T13:49:03;98754.91;;;9.64;67.55
76132;BME280;64877;50.994;13.650;2024-03-23T13:51:29;98753.03;;;9.54;68.62
76132;BME280;64877;50.994;13.650;2024-03-23T13:53:55;98742.16;;;9.66;68.59
76132;BME280;64877;50.994;13.650;2024-03-23T13:56:22;98734.22;;;9.74;67.91
76132;BME280;64877;50.994;13.650;2024-03-23T13:58:48;98727.44;;;9.70;68.89